createdAt,value
2018-03-21T00:00:02.026Z,100224.07
2018-03-21T00:02:29.980Z,100227.53
2018-03-21T00:04:58.130Z,100229.27
2018-03-21T00:07:25.848Z,100228.84
2018-03-21T00:09:53.418Z,100235.72
2018-03-21T00:12:20.976Z,100238.75
2018-03-21T00:14:49.320Z,100228.02
2018-03-21T00:17:17.036Z,100234.03
2018-03-21T00:19:44.600Z,100238.79
2018-03-21T00:22:12.344Z,100236.66
2018-03-21T00:24:41.236Z,100234.13
2018-03-21T00:27:09.436Z,100241.42
2018-03-21T00:29:37.908Z,100243.98
2018-03-21T00:32:05.635Z,100238.44
2018-03-21T00:34:33.196Z,100250.47
2018-03-21T00:37:00.911Z,100248.73
2018-03-21T00:39:30.009Z,100202.34
2018-03-21T00:41:57.608Z,100255.16
2018-03-21T00:44:25.945Z,100244.87
2018-03-21T00:46:53.559Z,100244.83
2018-03-21T00:49:21.189Z,100254.30
2018-03-21T00:51:49.055Z,100265.50
2018-03-21T00:54:16.834Z,100254.75
2018-03-21T00:56:44.402Z,100268.91
2018-03-21T00:59:11.967Z,100261.20
2018-03-21T01:01:40.394Z,100265.05
2018-03-21T01:04:08.246Z,100265.91
2018-03-21T01:06:35.956Z,100262.48
2018-03-21T01:09:03.543Z,100274.09
2018-03-21T01:11:31.090Z,100267.20
2018-03-21T01:13:58.652Z,100264.64
2018-03-21T01:16:26.182Z,100263.80
2018-03-21T01:18:53.752Z,100272.80
2018-03-21T01:21:21.287Z,100277.11
2018-03-21T01:23:48.888Z,100267.66
2018-03-21T01:26:16.443Z,100261.66
2018-03-21T01:28:43.983Z,100258.19
2018-03-21T01:31:11.542Z,100265.48
2018-03-21T01:33:39.085Z,100263.78
2018-03-21T01:36:06.680Z,100256.93
2018-03-21T01:38:34.198Z,100262.94
2018-03-21T01:41:01.772Z,100268.97
2018-03-21T01:43:29.304Z,100261.66
2018-03-21T01:45:56.870Z,100262.51
2018-03-21T01:48:24.406Z,100265.09
2018-03-21T01:50:51.972Z,100263.80
2018-03-21T01:53:19.499Z,100259.52
2018-03-21T01:55:47.162Z,100272.81
2018-03-21T01:58:14.817Z,100265.52
2018-03-21T02:00:42.383Z,100267.67
2018-03-21T02:03:09.922Z,100272.81
2018-03-21T02:05:37.465Z,100266.80
2018-03-21T02:08:05.029Z,100274.53
2018-03-21T02:10:33.423Z,100277.57
2018-03-21T02:13:00.983Z,100277.56
2018-03-21T02:15:28.522Z,100271.55
2018-03-21T02:17:56.071Z,100277.13
2018-03-21T02:20:23.612Z,100274.97
2018-03-21T02:22:51.164Z,100277.11
2018-03-21T02:25:18.794Z,100275.42
2018-03-21T02:27:46.352Z,100272.40
2018-03-21T02:30:13.908Z,100269.80
2018-03-21T02:32:41.474Z,100274.97
2018-03-21T02:35:09.003Z,100274.12
2018-03-21T02:37:36.521Z,100281.00
2018-03-21T02:40:04.107Z,100291.30
2018-03-21T02:42:31.665Z,100277.98
2018-03-21T02:44:59.217Z,100284.41
2018-03-21T02:47:26.743Z,100286.14
2018-03-21T02:49:54.294Z,100292.98
2018-03-21T02:52:21.813Z,100280.95
2018-03-21T02:54:49.388Z,100288.72
2018-03-21T02:57:16.922Z,100289.94
2018-03-21T02:59:44.475Z,100286.97
2018-03-21T03:02:12.036Z,100303.65
2018-03-21T03:04:39.628Z,100299.30
2018-03-21T03:07:07.157Z,100293.74
2018-03-21T03:09:34.731Z,100290.35
2018-03-21T03:12:02.287Z,100295.13
2018-03-21T03:14:29.871Z,100288.20
2018-03-21T03:16:57.438Z,100289.94
2018-03-21T03:19:24.995Z,100298.11
2018-03-21T03:21:52.552Z,100297.25
2018-03-21T03:24:20.108Z,100287.77
2018-03-21T03:26:47.676Z,100298.03
2018-03-21T03:29:15.205Z,100291.61
2018-03-21T03:31:42.778Z,100299.84
2018-03-21T03:34:10.306Z,100309.67
2018-03-21T03:36:37.871Z,100298.05
2018-03-21T03:39:05.416Z,100292.48
2018-03-21T03:41:33.844Z,100299.36
2018-03-21T03:44:01.414Z,100301.90
2018-03-21T03:46:28.971Z,100302.80
2018-03-21T03:48:56.536Z,100300.95
2018-03-21T03:51:24.071Z,100294.61
2018-03-21T03:54:07.256Z,100295.02
2018-03-21T03:56:34.799Z,100304.39
2018-03-21T03:59:02.360Z,100296.59
2018-03-21T04:01:29.877Z,100300.84
2018-03-21T04:03:57.437Z,100293.22
2018-03-21T04:06:25.001Z,100297.72
2018-03-21T04:08:52.560Z,100301.73
2018-03-21T04:11:20.089Z,100302.58
2018-03-21T04:13:47.664Z,100313.71
2018-03-21T04:16:15.181Z,100309.83
2018-03-21T04:18:42.752Z,100308.42
2018-03-21T04:21:10.308Z,100305.52
2018-03-21T04:23:37.860Z,100308.59
2018-03-21T04:26:05.432Z,100315.08
2018-03-21T04:28:33.899Z,100316.41
2018-03-21T04:31:01.456Z,100312.52
2018-03-21T04:33:28.981Z,100309.94
2018-03-21T04:35:56.635Z,100320.26
2018-03-21T04:38:24.156Z,100318.50
2018-03-21T04:40:51.761Z,100323.19
2018-03-21T04:43:19.299Z,100319.58
2018-03-21T04:45:46.864Z,100332.49
2018-03-21T04:48:14.380Z,100329.38
2018-03-21T04:50:41.956Z,100334.42
2018-03-21T04:53:09.728Z,100333.97
2018-03-21T04:55:37.342Z,100337.04
2018-03-21T04:58:04.903Z,100338.91
2018-03-21T05:00:32.437Z,100336.34
2018-03-21T05:02:59.995Z,100345.62
2018-03-21T05:05:27.516Z,100349.17
2018-03-21T05:07:55.110Z,100348.92
2018-03-21T05:10:22.629Z,100341.73
2018-03-21T05:12:50.187Z,100345.20
2018-03-21T05:15:17.788Z,100341.34
2018-03-21T05:17:45.352Z,100349.50
2018-03-21T05:20:12.907Z,100340.98
2018-03-21T05:22:40.465Z,100345.61
2018-03-21T05:25:08.025Z,100346.17
2018-03-21T05:27:36.482Z,100347.79
2018-03-21T05:30:04.760Z,100350.73
2018-03-21T05:32:32.283Z,100343.36
2018-03-21T05:34:59.839Z,100350.50
2018-03-21T05:37:27.360Z,100360.96
2018-03-21T05:39:54.918Z,100364.02
2018-03-21T05:42:22.448Z,100352.84
2018-03-21T05:44:50.538Z,100365.82
2018-03-21T05:47:18.630Z,100366.63
2018-03-21T05:49:47.620Z,100364.09
2018-03-21T05:52:15.176Z,100381.70
2018-03-21T05:54:42.856Z,100373.53
2018-03-21T05:57:10.404Z,100380.48
2018-03-21T05:59:37.990Z,100375.38
2018-03-21T06:02:05.541Z,100369.82
2018-03-21T06:04:33.154Z,100376.67
2018-03-21T06:07:00.717Z,100375.39
2018-03-21T06:09:28.426Z,100380.20
2018-03-21T06:11:56.035Z,100385.34
2018-03-21T06:14:23.580Z,100385.78
2018-03-21T06:16:51.177Z,100388.41
2018-03-21T06:19:21.493Z,100400.01
2018-03-21T06:21:52.404Z,100396.54
2018-03-21T06:24:20.162Z,100368.98
2018-03-21T06:26:47.871Z,100415.04
2018-03-21T06:29:15.390Z,100408.33
2018-03-21T06:31:42.923Z,100411.17
2018-03-21T06:34:10.540Z,100407.20
2018-03-21T06:36:38.339Z,100409.98
2018-03-21T06:39:06.067Z,100412.20
2018-03-21T06:41:33.581Z,100420.42
2018-03-21T06:44:01.153Z,100420.88
2018-03-21T06:46:28.684Z,100417.88
2018-03-21T06:48:56.255Z,100420.08
2018-03-21T06:51:23.795Z,100421.83
2018-03-21T06:53:51.387Z,100428.31
2018-03-21T06:56:18.919Z,100426.23
2018-03-21T06:58:46.509Z,100439.55
2018-03-21T07:01:14.065Z,100443.03
2018-03-21T07:03:41.651Z,100431.44
2018-03-21T07:06:09.235Z,100444.31
2018-03-21T07:08:36.763Z,100440.05
2018-03-21T07:11:05.158Z,100457.25
2018-03-21T07:16:46.590Z,100444.39
2018-03-21T07:19:14.119Z,100445.24
2018-03-21T07:21:41.688Z,100452.14
2018-03-21T07:24:09.217Z,100451.25
2018-03-21T07:26:36.793Z,100462.00
2018-03-21T07:29:05.127Z,100457.70
2018-03-21T07:31:32.671Z,100448.25
2018-03-21T07:34:00.204Z,100455.98
2018-03-21T07:36:27.775Z,100459.41
2018-03-21T07:38:55.304Z,100458.09
2018-03-21T07:41:22.823Z,100463.66
2018-03-21T07:43:50.433Z,100467.10
2018-03-21T07:46:17.962Z,100478.70
2018-03-21T07:48:45.550Z,100468.31
2018-03-21T07:51:13.086Z,100479.48
2018-03-21T07:53:40.644Z,100473.41
2018-03-21T07:56:08.168Z,100483.30
2018-03-21T07:58:35.718Z,100476.36
2018-03-21T08:01:03.247Z,100483.66
2018-03-21T08:03:30.811Z,100482.34
2018-03-21T08:05:58.323Z,100481.84
2018-03-21T08:08:25.885Z,100487.83
2018-03-21T08:10:53.419Z,100487.38
2018-03-21T08:13:20.992Z,100503.70
2018-03-21T08:15:48.521Z,100492.45
2018-03-21T08:18:16.038Z,100499.75
2018-03-21T08:20:43.584Z,100499.28
2018-03-21T08:23:11.122Z,100502.28
2018-03-21T08:25:38.671Z,100497.88
2018-03-21T08:28:06.210Z,100515.53
2018-03-21T08:30:33.811Z,100504.75
2018-03-21T08:33:01.334Z,100498.28
2018-03-21T08:35:28.891Z,100498.19
2018-03-21T08:37:56.408Z,100498.58
2018-03-21T08:40:23.975Z,100502.39
2018-03-21T08:42:51.504Z,100494.97
2018-03-21T08:45:19.044Z,100492.78
2018-03-21T08:47:46.585Z,100490.97
2018-03-21T08:50:14.124Z,100497.86
2018-03-21T08:52:41.665Z,100507.32
2018-03-21T08:55:09.194Z,100511.52
2018-03-21T08:57:37.004Z,100522.28
2018-03-21T09:00:05.704Z,100517.80
2018-03-21T09:02:41.242Z,100508.74
2018-03-21T09:05:13.211Z,100513.09
2018-03-21T09:07:43.775Z,100503.81
2018-03-21T09:10:11.790Z,100504.52
2018-03-21T09:12:43.448Z,100510.58
2018-03-21T09:15:11.274Z,100507.05
2018-03-21T09:17:39.256Z,100505.27
2018-03-21T09:20:06.788Z,100507.37
2018-03-21T09:22:34.852Z,100510.39
2018-03-21T09:25:02.968Z,100511.55
2018-03-21T09:27:32.326Z,100485.95
2018-03-21T09:30:00.987Z,100503.89
2018-03-21T09:32:29.671Z,100512.92
2018-03-21T09:34:59.736Z,100504.84
2018-03-21T09:37:30.825Z,100499.62
2018-03-21T09:39:58.864Z,100515.59
2018-03-21T09:42:26.804Z,100511.48
2018-03-21T09:44:56.466Z,100523.52
2018-03-21T09:47:26.286Z,100504.54
2018-03-21T09:49:54.483Z,100509.55
2018-03-21T09:52:25.617Z,100520.19
2018-03-21T09:54:55.451Z,100523.39
2018-03-21T09:57:23.711Z,100519.87
2018-03-21T09:59:54.529Z,100514.05
2018-03-21T10:02:23.664Z,100513.38
2018-03-21T10:04:52.969Z,100505.10
2018-03-21T10:07:20.576Z,100501.13
2018-03-21T10:09:48.851Z,100509.88
2018-03-21T10:12:18.490Z,100521.62
2018-03-21T10:14:49.009Z,100513.38
2018-03-21T10:17:19.344Z,100508.55
2018-03-21T10:19:48.297Z,100498.50
2018-03-21T10:22:17.683Z,100493.67
2018-03-21T10:24:45.588Z,100494.41
2018-03-21T10:27:14.009Z,100491.13
2018-03-21T10:29:41.564Z,100509.76
2018-03-21T10:32:09.344Z,100506.88
2018-03-21T10:34:38.545Z,100490.85
2018-03-21T10:37:06.651Z,100476.25
2018-03-21T10:39:36.636Z,100491.44
2018-03-21T10:42:04.296Z,100492.80
2018-03-21T10:44:32.146Z,100503.86
2018-03-21T10:47:01.580Z,100493.36
2018-03-21T10:49:30.245Z,100496.52
2018-03-21T10:51:57.972Z,100488.72
2018-03-21T10:54:32.051Z,100491.59
2018-03-21T10:57:05.298Z,100488.21
2018-03-21T10:59:34.032Z,100486.27
2018-03-21T11:02:09.397Z,100476.83
2018-03-21T11:04:37.057Z,100481.59
2018-03-21T11:09:39.145Z,100482.30
2018-03-21T11:12:08.227Z,100476.09
2018-03-21T11:14:36.351Z,100477.47
2018-03-21T11:17:05.076Z,100470.06
2018-03-21T11:19:36.152Z,100478.36
2018-03-21T11:22:04.097Z,100472.45
2018-03-21T11:24:31.678Z,100471.08
2018-03-21T11:27:00.035Z,100469.97
2018-03-21T11:29:33.758Z,100469.03
2018-03-21T11:32:01.720Z,100472.91
2018-03-21T11:34:29.854Z,100475.87
2018-03-21T11:36:59.427Z,100475.16
2018-03-21T11:39:27.412Z,100463.95
2018-03-21T11:41:55.405Z,100452.20
2018-03-21T11:44:23.000Z,100462.38
2018-03-21T11:46:54.582Z,100465.14
2018-03-21T11:49:24.348Z,100465.05
2018-03-21T11:51:53.346Z,100462.34
2018-03-21T11:54:21.898Z,100466.17
2018-03-21T11:56:50.393Z,100464.02
2018-03-21T11:59:22.169Z,100459.22
2018-03-21T12:01:51.249Z,100458.59
2018-03-21T12:04:20.943Z,100455.64
2018-03-21T12:06:48.528Z,100448.06
2018-03-21T12:09:17.701Z,100456.17
2018-03-21T12:11:45.491Z,100446.22
2018-03-21T12:14:15.493Z,100440.50
2018-03-21T12:16:43.548Z,100435.03
2018-03-21T12:19:11.742Z,100429.23
2018-03-21T12:21:45.719Z,100430.77
2018-03-21T12:24:15.117Z,100419.07
2018-03-21T12:26:43.672Z,100418.48
2018-03-21T12:29:11.343Z,100417.23
2018-03-21T12:31:38.887Z,100413.13
2018-03-21T12:34:10.930Z,100413.92
2018-03-21T12:36:41.803Z,100400.97
2018-03-21T12:39:10.674Z,100412.08
2018-03-21T12:41:44.068Z,100409.56
2018-03-21T12:44:17.728Z,100406.47
2018-03-21T12:46:47.851Z,100409.90
2018-03-21T12:49:16.899Z,100403.27
2018-03-21T12:51:45.204Z,100407.39
2018-03-21T12:54:13.187Z,100396.91
2018-03-21T12:56:40.799Z,100409.50
2018-03-21T12:59:10.882Z,100406.21
2018-03-21T13:01:41.153Z,100407.47
2018-03-21T13:04:09.238Z,100408.03
2018-03-21T13:06:37.090Z,100399.45
2018-03-21T13:09:04.812Z,100404.55
2018-03-21T13:11:32.680Z,100402.32
2018-03-21T13:14:00.981Z,100400.22
2018-03-21T13:16:33.017Z,100399.42
2018-03-21T13:19:04.905Z,100395.27
2018-03-21T13:21:33.186Z,100387.19
2018-03-21T13:24:00.793Z,100383.84
2018-03-21T13:26:29.882Z,100378.61
2018-03-21T13:28:58.758Z,100370.48
2018-03-21T13:31:28.324Z,100376.34
2018-03-21T13:33:57.534Z,100373.75
2018-03-21T13:36:26.161Z,100380.80
2018-03-21T13:38:56.711Z,100370.19
2018-03-21T13:41:26.469Z,100369.73
2018-03-21T13:43:55.553Z,100370.89
2018-03-21T13:46:24.764Z,100361.88
2018-03-21T13:48:52.288Z,100360.50
2018-03-21T13:51:19.866Z,100365.27
2018-03-21T13:53:47.376Z,100368.35
2018-03-21T13:56:15.076Z,100366.73
2018-03-21T13:58:42.648Z,100360.18
2018-03-21T14:01:10.210Z,100363.22
2018-03-21T14:03:37.735Z,100364.58
2018-03-21T14:06:05.497Z,100343.22
2018-03-21T14:08:33.508Z,100354.39
2018-03-21T14:11:01.161Z,100363.44
2018-03-21T14:13:28.669Z,100358.97
2018-03-21T14:15:56.860Z,100365.18
2018-03-21T14:18:25.753Z,100354.90
2018-03-21T14:20:53.350Z,100357.88
2018-03-21T14:23:20.901Z,100362.20
2018-03-21T14:25:48.454Z,100350.48
2018-03-21T14:28:16.003Z,100358.65
2018-03-21T14:30:43.552Z,100342.98
2018-03-21T14:33:11.113Z,100344.28
2018-03-21T14:35:38.664Z,100333.05
2018-03-21T14:38:06.232Z,100339.45
2018-03-21T14:40:33.777Z,100331.01
2018-03-21T14:43:01.292Z,100321.08
2018-03-21T14:45:28.838Z,100321.47
2018-03-21T14:47:56.364Z,100324.81
2018-03-21T14:50:23.910Z,100332.21
2018-03-21T14:52:51.454Z,100323.08
2018-03-21T14:55:19.068Z,100328.68
2018-03-21T14:57:46.599Z,100322.44
2018-03-21T15:00:14.157Z,100310.98
2018-03-21T15:02:41.668Z,100305.31
2018-03-21T15:05:09.237Z,100315.15
2018-03-21T15:07:37.105Z,100304.18
2018-03-21T15:10:04.666Z,100306.16
2018-03-21T15:12:32.195Z,100300.61
2018-03-21T15:14:59.737Z,100313.45
2018-03-21T15:17:27.271Z,100297.62
2018-03-21T15:19:58.932Z,100304.98
2018-03-21T15:22:28.908Z,100308.29
2018-03-21T15:24:57.759Z,100309.36
2018-03-21T15:27:26.020Z,100315.21
2018-03-21T15:29:54.767Z,100308.34
2018-03-21T15:32:23.136Z,100296.00
2018-03-21T15:34:55.469Z,100308.47
2018-03-21T15:37:26.322Z,100308.51
2018-03-21T15:39:54.827Z,100310.03
2018-03-21T15:42:23.071Z,100316.75
2018-03-21T15:44:55.336Z,100310.44
2018-03-21T15:47:27.959Z,100315.36
2018-03-21T15:49:57.459Z,100304.25
2018-03-21T15:52:25.422Z,100303.43
2018-03-21T15:54:55.638Z,100292.45
2018-03-21T15:57:29.049Z,100283.44
2018-03-21T15:59:57.804Z,100286.32
2018-03-21T16:02:25.437Z,100292.59
2018-03-21T16:04:54.098Z,100286.78
2018-03-21T16:07:22.528Z,100296.19
2018-03-21T16:09:52.068Z,100286.59
2018-03-21T16:12:20.111Z,100281.85
2018-03-21T16:14:47.836Z,100288.31
2018-03-21T16:17:15.422Z,100280.02
2018-03-21T16:19:42.947Z,100277.58
2018-03-21T16:22:10.516Z,100290.29
2018-03-21T16:24:38.036Z,100285.56
2018-03-21T16:27:05.615Z,100285.61
2018-03-21T16:29:33.128Z,100281.80
2018-03-21T16:32:00.703Z,100283.02
2018-03-21T16:34:28.256Z,100285.20
2018-03-21T16:36:55.776Z,100295.18
2018-03-21T16:39:23.336Z,100283.76
2018-03-21T16:41:50.852Z,100287.59
2018-03-21T16:44:18.432Z,100290.30
2018-03-21T16:46:45.952Z,100290.98
2018-03-21T16:49:13.509Z,100294.96
2018-03-21T16:51:41.024Z,100291.27
2018-03-21T16:54:09.707Z,100277.53
2018-03-21T16:56:37.196Z,100286.52
2018-03-21T16:59:04.761Z,100300.55
2018-03-21T17:01:32.295Z,100298.07
2018-03-21T17:03:59.881Z,100309.45
2018-03-21T17:06:27.397Z,100310.55
2018-03-21T17:08:55.575Z,100310.20
2018-03-21T17:11:24.219Z,100324.08
2018-03-21T17:13:52.035Z,100324.56
2018-03-21T17:16:21.931Z,100317.48
2018-03-21T17:18:50.386Z,100318.47
2018-03-21T17:21:18.716Z,100314.72
2018-03-21T17:23:46.596Z,100313.99
2018-03-21T17:26:14.171Z,100320.92
2018-03-21T17:28:41.699Z,100321.06
2018-03-21T17:31:10.278Z,100319.45
2018-03-21T17:33:39.969Z,100330.14
2018-03-21T17:36:11.251Z,100323.59
2018-03-21T17:38:42.019Z,100322.45
2018-03-21T17:41:10.175Z,100323.83
2018-03-21T17:43:38.404Z,100334.44
2018-03-21T17:46:07.442Z,100336.99
2018-03-21T17:48:39.091Z,100325.40
2018-03-21T17:51:09.147Z,100330.44
2018-03-21T17:53:37.396Z,100331.08
2018-03-21T17:56:07.238Z,100317.34
2018-03-21T17:58:37.758Z,100319.48
2018-03-21T18:01:06.603Z,100316.67
2018-03-21T18:03:34.656Z,100324.61
2018-03-21T18:06:02.248Z,100320.12
2018-03-21T18:08:32.107Z,100318.02
2018-03-21T18:11:01.859Z,100307.67
2018-03-21T18:13:31.135Z,100305.88
2018-03-21T18:16:00.394Z,100314.67
2018-03-21T18:18:28.028Z,100316.73
2018-03-21T18:20:58.976Z,100316.67
2018-03-21T18:23:29.807Z,100321.35
2018-03-21T18:25:58.320Z,100317.14
2018-03-21T18:28:26.858Z,100317.89
2018-03-21T18:30:54.577Z,100322.88
2018-03-21T18:33:26.128Z,100319.20
2018-03-21T18:35:54.225Z,100322.28
2018-03-21T18:38:22.174Z,100319.11
2018-03-21T18:40:50.395Z,100335.03
2018-03-21T18:43:18.039Z,100330.70
2018-03-21T18:45:45.560Z,100330.28
2018-03-21T18:48:16.143Z,100338.77
2018-03-21T18:50:46.768Z,100334.37
2018-03-21T18:53:15.031Z,100335.55
2018-03-21T18:55:43.130Z,100343.83
2018-03-21T18:58:10.819Z,100335.47
2018-03-21T19:00:38.376Z,100333.55
2018-03-21T19:03:06.975Z,100339.20
2018-03-21T19:05:36.078Z,100344.94
2018-03-21T19:08:05.879Z,100340.36
2018-03-21T19:10:33.882Z,100340.62
2018-03-21T19:13:01.689Z,100337.67
2018-03-21T19:15:32.312Z,100347.64
2018-03-21T19:18:02.772Z,100345.08
2018-03-21T19:20:31.967Z,100342.48
2018-03-21T19:23:01.977Z,100336.75
2018-03-21T19:25:32.940Z,100343.56
2018-03-21T19:28:04.752Z,100344.45
2018-03-21T19:30:34.756Z,100343.83
2018-03-21T19:33:04.864Z,100331.44
2018-03-21T19:35:32.641Z,100337.54
2018-03-21T19:38:02.054Z,100329.80
2018-03-21T19:40:29.705Z,100327.92
2018-03-21T19:43:00.192Z,100331.48
2018-03-21T19:45:29.540Z,100327.14
2018-03-21T19:48:00.562Z,100333.89
2018-03-21T19:53:05.111Z,100358.29
2018-03-21T19:55:35.383Z,100371.69
2018-03-21T19:58:05.859Z,100351.38
2018-03-21T20:00:35.632Z,100368.69
2018-03-21T20:03:08.300Z,100357.50
2018-03-21T20:05:40.955Z,100349.05
2018-03-21T20:08:12.536Z,100347.51
2018-03-21T20:10:40.072Z,100350.11
2018-03-21T20:13:07.643Z,100350.14
2018-03-21T20:15:35.255Z,100354.03
2018-03-21T20:18:03.317Z,100350.55
2018-03-21T20:20:30.881Z,100343.02
2018-03-21T20:22:58.444Z,100346.22
2018-03-21T20:25:26.617Z,100342.18
2018-03-21T20:27:54.185Z,100346.82
2018-03-21T20:30:21.713Z,100335.13
2018-03-21T20:32:49.268Z,100338.69
2018-03-21T20:35:16.956Z,100333.30
2018-03-21T20:37:44.513Z,100333.17
2018-03-21T20:40:12.052Z,100328.13
2018-03-21T20:42:39.604Z,100320.45
2018-03-21T20:45:07.134Z,100323.39
2018-03-21T20:47:34.693Z,100310.55
2018-03-21T20:50:02.222Z,100318.31
2018-03-21T20:52:29.805Z,100312.30
2018-03-21T20:54:57.412Z,100322.48
2018-03-21T20:57:24.989Z,100317.74
2018-03-21T20:59:52.511Z,100320.14
2018-03-21T21:02:20.069Z,100327.77
2018-03-21T21:04:47.591Z,100314.47
2018-03-21T21:07:15.152Z,100308.19
2018-03-21T21:09:42.698Z,100306.40
2018-03-21T21:12:10.278Z,100309.88
2018-03-21T21:14:37.807Z,100319.23
2018-03-21T21:17:05.336Z,100317.53
2018-03-21T21:19:32.900Z,100308.15
2018-03-21T21:22:00.483Z,100310.02
2018-03-21T21:24:28.042Z,100313.05
2018-03-21T21:26:58.762Z,100319.83
2018-03-21T21:29:26.494Z,100323.72
2018-03-21T21:31:54.092Z,100317.01
2018-03-21T21:34:21.668Z,100319.13
2018-03-21T21:36:49.228Z,100321.33
2018-03-21T21:39:18.657Z,100328.23
2018-03-21T21:41:46.355Z,100317.93
2018-03-21T21:44:13.923Z,100319.19
2018-03-21T21:46:41.577Z,100317.92
2018-03-21T21:49:09.161Z,100326.55
2018-03-21T21:51:36.691Z,100321.84
2018-03-21T21:54:07.163Z,100325.48
2018-03-21T21:56:36.757Z,100320.78
2018-03-21T21:59:05.299Z,100314.25
2018-03-21T22:01:33.174Z,100328.53
2018-03-21T22:04:01.384Z,100317.54
2018-03-21T22:06:30.778Z,100312.64
2018-03-21T22:08:59.970Z,100313.02
2018-03-21T22:11:29.063Z,100280.08
2018-03-21T22:13:59.967Z,100312.84
2018-03-21T22:16:30.729Z,100312.73
2018-03-21T22:19:00.751Z,100307.92
2018-03-21T22:21:28.752Z,100277.52
2018-03-21T22:23:58.243Z,100298.02
2018-03-21T22:26:27.013Z,100294.17
2018-03-21T22:28:56.307Z,100286.42
2018-03-21T22:31:26.092Z,100287.44
2018-03-21T22:33:58.860Z,100293.92
2018-03-21T22:36:27.910Z,100295.59
2018-03-21T22:38:57.560Z,100288.89
2018-03-21T22:41:25.985Z,100286.67
2018-03-21T22:43:53.667Z,100275.86
2018-03-21T22:46:21.215Z,100274.42
2018-03-21T22:48:50.319Z,100276.69
2018-03-21T22:51:19.140Z,100281.39
2018-03-21T22:53:46.720Z,100273.30
2018-03-21T22:56:15.449Z,100267.15
2018-03-21T22:58:43.138Z,100265.52
2018-03-21T23:01:13.023Z,100259.47
2018-03-21T23:03:55.712Z,100267.20
2018-03-21T23:06:24.701Z,100253.31
2018-03-21T23:08:52.770Z,100247.36
2018-03-21T23:11:24.537Z,100242.97
2018-03-21T23:13:52.890Z,100234.41
2018-03-21T23:16:22.707Z,100238.23
2018-03-21T23:18:50.501Z,100235.67
2018-03-21T23:21:18.084Z,100252.91
2018-03-21T23:23:46.954Z,100234.98
2018-03-21T23:26:14.919Z,100238.07
2018-03-21T23:28:42.706Z,100231.55
2018-03-21T23:31:11.837Z,100218.77
2018-03-21T23:33:39.480Z,100222.89
2018-03-21T23:36:08.430Z,100225.84
2018-03-21T23:38:36.280Z,100211.31
2018-03-21T23:41:03.836Z,100204.44
2018-03-21T23:43:31.377Z,100193.30
2018-03-21T23:46:03.583Z,100212.64
2018-03-21T23:48:35.372Z,100194.56
2018-03-21T23:51:06.791Z,100194.98
2018-03-21T23:53:34.530Z,100214.39
2018-03-21T23:56:04.978Z,100210.92
2018-03-21T23:58:34.837Z,100202.73
